Time;durP1;ratioP1;P1;durP2;ratioP2;P2;SDS_P1;SDS_P2;PMS_P1;PMS_P2;Temp;Humidity;BMP_temperature;BMP_pressure;BME280_temperature;BME280_humidity;BME280_pressure;Samples;Min_cycle;Max_cycle;Signal;HPM_P1;HPM_P2
2022/11/22 00:01:03;;;;;;;2.05;0.70;;;;;;;6.23;100.00;99129.31;5053099;27;96531;-31
2022/11/22 00:03:29;;;;;;;2.50;1.42;;;;;;;6.25;100.00;99127.38;5053178;27;96731;-31
2022/11/22 00:05:54;;;;;;;7.55;0.82;;;;;;;6.24;100.00;99131.88;5052866;27;99198;-30
2022/11/22 00:08:20;;;;;;;1.55;0.95;;;;;;;6.24;100.00;99131.03;5052728;27;99109;-31
2022/11/22 00:10:48;;;;;;;1.35;0.93;;;;;;;6.23;100.00;99134.69;5052829;27;96807;-30
2022/11/22 00:13:14;;;;;;;3.45;1.08;;;;;;;6.22;100.00;99130.28;5053274;27;96725;-30
2022/11/22 00:15:39;;;;;;;1.15;0.73;;;;;;;6.20;100.00;99133.09;5052343;27;99316;-30
2022/11/22 00:18:04;;;;;;;1.17;0.85;;;;;;;6.20;100.00;99124.13;5035097;27;96911;-30
2022/11/22 00:20:30;;;;;;;1.08;0.88;;;;;;;6.23;100.00;99132.00;5052565;27;96640;-31
2022/11/22 00:22:57;;;;;;;1.13;0.90;;;;;;;6.21;100.00;99129.41;5052681;27;96614;-30
2022/11/22 00:25:22;;;;;;;3.28;1.42;;;;;;;6.19;100.00;99133.19;5051869;27;97934;-30
2022/11/22 00:27:47;;;;;;;2.83;1.40;;;;;;;6.18;100.00;99132.34;5052583;27;101217;-32
2022/11/22 00:30:14;;;;;;;1.08;0.70;;;;;;;6.17;100.00;99138.66;5052595;27;96543;-31
2022/11/22 00:32:39;;;;;;;3.92;1.23;;;;;;;6.16;100.00;99127.06;5052603;27;96514;-32
2022/11/22 00:35:05;;;;;;;0.85;0.68;;;;;;;6.16;100.00;99139.66;5052415;27;100870;-31
2022/11/22 00:37:31;;;;;;;3.72;0.90;;;;;;;6.15;100.00;99138.78;5052894;27;98069;-32
2022/11/22 00:39:56;;;;;;;1.08;0.80;;;;;;;6.19;100.00;99134.03;5052117;27;96607;-31
2022/11/22 00:42:21;;;;;;;0.68;0.50;;;;;;;6.20;100.00;99137.59;5052796;27;96663;-31
2022/11/22 00:44:47;;;;;;;1.05;0.50;;;;;;;6.23;100.00;99138.25;5050813;27;102421;-32
2022/11/22 00:47:12;;;;;;;1.70;0.70;;;;;;;6.25;100.00;99141.69;5052339;27;99173;-30
2022/11/22 00:49:38;;;;;;;0.50;0.22;;;;;;;6.26;100.00;99147.91;5052691;27;96506;-31
2022/11/22 00:52:03;;;;;;;2.20;0.80;;;;;;;6.26;100.00;99145.22;5052290;27;100331;-31
2022/11/22 00:54:28;;;;;;;4.13;1.60;;;;;;;6.28;100.00;99154.91;5051911;27;99117;-31
2022/11/22 00:56:54;;;;;;;0.45;0.32;;;;;;;6.29;100.00;99156.63;5052147;27;103989;-32
2022/11/22 00:59:19;;;;;;;1.65;0.60;;;;;;;6.31;100.00;99153.81;5052489;27;96482;-31
2022/11/22 01:01:44;;;;;;;3.70;0.70;;;;;;;6.29;100.00;99140.50;5052515;27;100687;-31
2022/11/22 01:04:10;;;;;;;1.65;1.08;;;;;;;6.26;100.00;99146.06;5051997;27;99478;-31
2022/11/22 01:06:35;;;;;;;1.42;0.93;;;;;;;6.25;100.00;99144.38;5052227;27;97359;-30
2022/11/22 01:09:00;;;;;;;0.93;0.75;;;;;;;6.22;100.00;99141.91;5051767;27;96703;-31
2022/11/22 01:11:26;;;;;;;0.45;0.45;;;;;;;6.19;100.00;99142.09;5051992;27;96787;-31
2022/11/22 01:13:51;;;;;;;2.00;0.52;;;;;;;6.19;100.00;99143.94;5052203;27;98209;-31
2022/11/22 01:16:16;;;;;;;1.35;0.65;;;;;;;6.18;100.00;99139.56;5033828;27;97790;-31
2022/11/22 01:18:42;;;;;;;1.10;0.52;;;;;;;6.18;100.00;99147.63;5052320;27;96612;-32
2022/11/22 01:21:08;;;;;;;2.90;0.47;;;;;;;6.13;100.00;99145.25;5052208;27;96787;-30
2022/11/22 01:23:33;;;;;;;0.28;0.28;;;;;;;6.08;100.00;99136.66;5051703;27;97468;-30
2022/11/22 01:25:59;;;;;;;1.55;0.60;;;;;;;6.06;100.00;99142.13;5052053;27;97045;-31
2022/11/22 01:28:25;;;;;;;1.27;0.77;;;;;;;6.07;100.00;99151.03;5051999;27;96541;-30
2022/11/22 01:30:52;;;;;;;0.50;0.38;;;;;;;6.02;100.00;99146.00;5052061;27;96748;-30
2022/11/22 01:33:18;;;;;;;1.00;0.47;;;;;;;6.01;100.00;99149.66;5033052;27;101114;-30
2022/11/22 01:35:43;;;;;;;0.38;0.38;;;;;;;5.99;100.00;99142.69;5033439;27;100798;-31
2022/11/22 01:38:09;;;;;;;0.52;0.28;;;;;;;5.99;100.00;99135.47;5051835;27;96570;-31
2022/11/22 01:40:34;;;;;;;2.00;0.38;;;;;;;5.99;100.00;99137.31;5033543;27;96810;-31
2022/11/22 01:43:01;;;;;;;1.10;0.47;;;;;;;5.96;100.00;99135.69;5051760;27;98015;-30
2022/11/22 01:45:30;;;;;;;0.55;0.32;;;;;;;5.97;100.00;99144.59;5033194;27;104140;-31
2022/11/22 01:48:03;;;;;;;0.93;0.68;;;;;;;5.92;100.00;99139.53;5051816;27;96460;-32
2022/11/22 01:50:32;;;;;;;1.13;0.65;;;;;;;5.89;100.00;99142.44;5033785;27;97229;-31
2022/11/22 01:53:02;;;;;;;1.10;0.60;;;;;;;5.86;100.00;99143.47;5033295;27;99221;-31
2022/11/22 01:55:28;;;;;;;1.27;0.93;;;;;;;5.87;100.00;99157.78;5034789;27;100986;-30
2022/11/22 01:57:55;;;;;;;4.63;1.30;;;;;;;5.84;100.00;99150.81;5036300;27;97178;-31
2022/11/22 02:00:20;;;;;;;0.82;0.43;;;;;;;5.82;100.00;99152.75;5055062;27;96796;-31
2022/11/22 02:02:50;;;;;;;2.38;1.15;;;;;;;5.79;100.00;99160.13;5054921;27;102777;-31
2022/11/22 02:05:18;;;;;;;1.00;0.55;;;;;;;5.78;100.00;99161.97;5036238;27;100911;-31
2022/11/22 02:07:53;;;;;;;1.23;0.70;;;;;;;5.77;100.00;99162.94;5036542;27;96670;-30
2022/11/22 02:10:21;;;;;;;0.63;0.40;;;;;;;5.77;100.00;99164.75;5036413;27;96677;-30
2022/11/22 02:12:49;;;;;;;0.10;0.10;;;;;;;5.76;100.00;99158.53;5054733;27;97920;-31
2022/11/22 02:15:15;;;;;;;0.85;0.43;;;;;;;5.76;100.00;99153.16;5054963;27;98265;-31
2022/11/22 02:17:40;;;;;;;0.73;0.55;;;;;;;5.74;99.83;99153.28;5036352;27;96915;-31
2022/11/22 02:20:06;;;;;;;1.70;0.75;;;;;;;5.72;99.83;99152.50;5054433;27;103550;-33
2022/11/22 02:23:00;;;;;;;0.98;0.57;;;;;;;5.69;99.65;99150.00;5035629;27;100773;-31
2022/11/22 02:25:29;;;;;;;3.55;0.77;;;;;;;5.73;99.65;99166.81;5022882;28;100766;-32
2022/11/22 02:27:54;;;;;;;1.67;0.60;;;;;;;5.72;99.61;99170.44;5034297;28;96597;-30
2022/11/22 02:30:20;;;;;;;1.10;0.52;;;;;;;5.72;99.66;99173.13;5034140;28;96728;-31
2022/11/22 02:32:45;;;;;;;5.05;0.43;;;;;;;5.69;99.54;99178.72;5034332;28;97463;-31
2022/11/22 02:35:23;;;;;;;1.15;0.40;;;;;;;5.66;99.04;99185.16;5033941;28;107588;-32
2022/11/22 02:37:51;;;;;;;1.52;0.75;;;;;;;5.63;99.02;99187.22;5016001;28;96488;-31
2022/11/22 02:40:19;;;;;;;0.85;0.38;;;;;;;5.65;99.02;99193.31;5016313;28;97682;-31
2022/11/22 02:42:49;;;;;;;1.48;0.68;;;;;;;5.64;98.94;99183.53;5034045;28;96854;-31
2022/11/22 02:45:15;;;;;;;1.75;0.40;;;;;;;5.64;98.99;99188.91;5015621;28;100733;-31
2022/11/22 02:47:40;;;;;;;1.30;0.73;;;;;;;5.62;98.75;99189.00;5033656;28;96751;-31
2022/11/22 02:50:06;;;;;;;3.17;0.28;;;;;;;5.62;98.84;99193.53;5034247;28;96501;-31
2022/11/22 02:52:32;;;;;;;0.60;0.47;;;;;;;5.62;98.79;99190.84;5015694;28;101965;-31
2022/11/22 02:54:57;;;;;;;0.60;0.30;;;;;;;5.58;98.37;99198.25;5033796;28;99312;-30
2022/11/22 02:57:22;;;;;;;2.78;0.68;;;;;;;5.57;98.52;99195.66;5033931;28;97153;-30
2022/11/22 02:59:47;;;;;;;0.22;0.20;;;;;;;5.56;97.92;99197.50;5034271;28;96715;-30
2022/11/22 03:02:13;;;;;;;6.80;0.75;;;;;;;5.60;98.11;99208.88;5033004;28;115569;-30
2022/11/22 03:04:38;;;;;;;1.15;0.47;;;;;;;5.55;97.98;99203.81;5033615;28;112745;-30
2022/11/22 03:07:04;;;;;;;1.20;0.40;;;;;;;5.51;97.95;99189.75;5032863;27;96522;-31
2022/11/22 03:09:30;;;;;;;2.45;0.60;;;;;;;5.53;97.86;99197.72;5033497;28;96806;-31
2022/11/22 03:11:56;;;;;;;1.08;0.63;;;;;;;5.55;97.91;99195.75;5014817;28;101041;-31
2022/11/22 03:14:21;;;;;;;0.30;0.25;;;;;;;5.52;97.54;99196.81;5033633;28;97930;-31
2022/11/22 03:16:47;;;;;;;0.85;0.28;;;;;;;5.51;97.68;99197.81;5033286;28;96471;-31
2022/11/22 03:19:13;;;;;;;1.20;0.70;;;;;;;5.51;97.55;99196.94;5033320;28;96758;-31
2022/11/22 03:21:40;;;;;;;0.68;0.30;;;;;;;5.46;97.33;99199.94;5015244;28;101036;-31
2022/11/22 03:24:06;;;;;;;0.00;0.00;;;;;;;5.45;97.43;99198.22;5016336;27;100756;-31
2022/11/22 03:26:32;;;;;;;2.00;0.65;;;;;;;5.41;97.24;99196.72;5053770;27;96700;-31
2022/11/22 03:28:57;;;;;;;1.45;0.15;;;;;;;5.38;96.67;99204.09;5035797;27;96819;-31
2022/11/22 03:31:23;;;;;;;0.55;0.32;;;;;;;5.39;97.12;99211.22;5053294;27;98810;-31
2022/11/22 03:33:48;;;;;;;0.32;0.32;;;;;;;5.36;97.02;99201.50;5053411;27;98620;-31
2022/11/22 03:36:13;;;;;;;0.35;0.35;;;;;;;5.34;96.86;99214.19;5053274;27;96541;-30
2022/11/22 03:38:38;;;;;;;0.73;0.28;;;;;;;5.32;97.05;99208.06;5053405;27;96861;-31
2022/11/22 03:41:04;;;;;;;0.17;0.08;;;;;;;5.30;97.07;99210.84;5052801;27;107796;-30
2022/11/22 03:43:29;;;;;;;2.78;0.65;;;;;;;5.27;96.88;99204.81;5053461;27;97874;-31
2022/11/22 03:45:55;;;;;;;0.77;0.30;;;;;;;5.30;97.22;99212.66;5053398;27;96483;-32
2022/11/22 03:48:20;;;;;;;1.42;0.40;;;;;;;5.28;97.04;99209.22;5053631;27;96811;-31
2022/11/22 03:50:46;;;;;;;0.20;0.20;;;;;;;5.22;97.24;99202.44;5053562;27;97401;-31
2022/11/22 03:53:11;;;;;;;0.30;0.15;;;;;;;5.21;96.89;99203.38;5035273;27;100944;-31
2022/11/22 03:55:37;;;;;;;0.20;0.20;;;;;;;5.17;97.01;99212.59;5053374;27;96515;-32
2022/11/22 03:58:03;;;;;;;5.65;0.82;;;;;;;5.13;96.86;99213.78;5034934;27;96714;-31
2022/11/22 04:00:28;;;;;;;0.73;0.43;;;;;;;5.14;96.90;99230.75;5052606;27;97764;-30
2022/11/22 04:02:54;;;;;;;1.25;0.43;;;;;;;5.11;96.91;99229.97;5053197;27;97295;-31
2022/11/22 04:05:19;;;;;;;0.25;0.05;;;;;;;5.08;96.90;99232.00;5052439;27;106368;-31
2022/11/22 04:07:44;;;;;;;0.65;0.38;;;;;;;5.08;96.95;99235.56;5052910;27;99649;-30
2022/11/22 04:10:10;;;;;;;0.60;0.25;;;;;;;5.06;97.24;99245.50;5052565;27;102367;-31
2022/11/22 04:12:35;;;;;;;1.98;0.25;;;;;;;5.05;96.83;99237.56;5052825;27;99727;-32
2022/11/22 04:15:07;;;;;;;5.45;0.65;;;;;;;5.00;96.92;99237.84;5053151;27;96571;-32
2022/11/22 04:17:40;;;;;;;5.50;0.30;;;;;;;5.03;96.79;99237.69;5034686;27;96649;-31
2022/11/22 04:23:06;;;;;;;0.88;0.43;;;;;;;4.99;96.86;99237.97;5052671;27;97097;-30
2022/11/22 04:25:34;;;;;;;0.75;0.43;;;;;;;4.94;96.68;99235.59;5051485;27;96773;-30
2022/11/22 04:28:00;;;;;;;1.55;0.55;;;;;;;4.94;96.62;99243.63;5034342;27;96780;-30
2022/11/22 04:33:12;;;;;;;0.47;0.28;;;;;;;4.94;96.42;99243.63;5052746;27;97007;-30
2022/11/22 04:35:38;;;;;;;0.30;0.15;;;;;;;4.90;96.23;99240.25;5034410;27;96970;-31
2022/11/22 04:38:04;;;;;;;0.57;0.40;;;;;;;4.92;96.37;99244.69;5052714;27;96730;-30
2022/11/22 04:40:30;;;;;;;6.22;0.77;;;;;;;4.89;96.43;99241.25;5034158;27;101392;-30
2022/11/22 04:45:39;;;;;;;0.15;0.13;;;;;;;4.89;96.23;99245.75;5052609;27;96449;-31
2022/11/22 04:48:04;;;;;;;2.92;0.50;;;;;;;4.90;96.04;99256.38;5052575;27;96738;-31
2022/11/22 04:53:16;;;;;;;0.20;0.10;;;;;;;4.89;96.19;99259.16;5052947;27;96887;-31
2022/11/22 04:55:43;;;;;;;0.95;0.25;;;;;;;4.88;96.14;99263.66;5034083;27;96524;-31
2022/11/22 04:58:08;;;;;;;1.70;0.50;;;;;;;4.89;96.04;99254.66;5033958;27;96814;-31
2022/11/22 05:00:34;;;;;;;0.17;0.17;;;;;;;4.90;96.33;99260.88;5052435;27;97308;-31
2022/11/22 05:03:00;;;;;;;1.25;0.70;;;;;;;4.89;96.06;99259.16;5052473;27;97789;-31
2022/11/22 05:05:26;;;;;;;2.40;0.32;;;;;;;4.89;95.62;99262.69;5033866;27;96586;-30
2022/11/22 05:07:52;;;;;;;2.45;0.60;;;;;;;4.95;96.02;99263.25;5034435;27;96762;-31
2022/11/22 05:10:17;;;;;;;0.10;0.10;;;;;;;4.95;96.25;99277.53;5052084;27;97374;-31
2022/11/22 05:12:42;;;;;;;0.00;0.00;;;;;;;4.98;95.92;99263.06;5052126;27;97802;-30
2022/11/22 05:15:10;;;;;;;0.55;0.35;;;;;;;4.96;96.14;99265.88;5051688;27;96468;-31
2022/11/22 05:17:37;;;;;;;0.65;0.32;;;;;;;4.98;96.22;99263.06;5052227;27;96462;-32
2022/11/22 05:20:03;;;;;;;0.40;0.30;;;;;;;4.96;95.34;99260.50;5033531;27;100855;-30
2022/11/22 05:25:12;;;;;;;0.20;0.20;;;;;;;4.99;95.38;99256.75;5051643;27;96782;-30
2022/11/22 05:27:37;;;;;;;0.43;0.30;;;;;;;4.99;95.50;99254.91;5051881;27;96743;-31
2022/11/22 05:30:04;;;;;;;1.13;0.57;;;;;;;4.99;95.63;99260.28;5052857;27;97659;-32
2022/11/22 05:32:31;;;;;;;1.02;0.52;;;;;;;5.06;95.67;99271.50;5037315;27;101758;-31
2022/11/22 05:34:56;;;;;;;0.50;0.45;;;;;;;5.03;95.46;99256.47;5037183;27;96816;-30
2022/11/22 05:37:22;;;;;;;1.33;0.65;;;;;;;5.02;95.65;99268.13;5055518;27;96544;-31
2022/11/22 05:39:47;;;;;;;0.55;0.15;;;;;;;5.03;95.55;99267.19;5054631;27;99416;-31
2022/11/22 05:42:12;;;;;;;3.95;1.05;;;;;;;5.00;95.32;99251.25;5055145;27;98058;-31
2022/11/22 05:44:38;;;;;;;0.70;0.47;;;;;;;4.99;95.15;99262.13;5055165;27;96473;-31
2022/11/22 05:47:03;;;;;;;4.68;0.38;;;;;;;5.04;95.24;99268.03;5055444;27;96832;-31
2022/11/22 05:49:29;;;;;;;1.08;0.73;;;;;;;5.04;95.47;99260.84;5054999;27;99463;-31
2022/11/22 05:51:54;;;;;;;0.68;0.43;;;;;;;5.00;95.43;99267.38;5055240;27;97790;-32
2022/11/22 05:54:19;;;;;;;0.45;0.40;;;;;;;5.00;95.41;99267.38;5055306;27;96553;-31
2022/11/22 05:56:46;;;;;;;0.35;0.20;;;;;;;5.00;95.01;99270.03;5055656;27;101488;-32
2022/11/22 05:59:12;;;;;;;1.10;0.60;;;;;;;5.01;95.09;99262.88;5054783;27;99363;-31
2022/11/22 06:01:37;;;;;;;2.92;1.08;;;;;;;4.97;95.07;99251.47;5054733;27;100722;-32
2022/11/22 06:04:03;;;;;;;7.22;0.80;;;;;;;4.99;95.16;99254.06;5054929;27;96632;-31
2022/11/22 06:06:28;;;;;;;1.10;0.57;;;;;;;4.97;95.20;99245.25;5036715;27;97042;-30
2022/11/22 06:08:54;;;;;;;1.70;0.65;;;;;;;4.97;95.07;99259.53;5054470;27;99266;-31
2022/11/22 06:11:24;;;;;;;0.38;0.25;;;;;;;4.98;95.00;99266.63;5054594;27;99336;-31
2022/11/22 06:13:55;;;;;;;0.40;0.40;;;;;;;5.02;95.43;99265.44;5036550;27;96550;-31
2022/11/22 06:16:21;;;;;;;0.57;0.40;;;;;;;4.99;95.01;99256.75;5036160;27;99806;-30
2022/11/22 06:18:47;;;;;;;0.70;0.35;;;;;;;4.99;94.86;99244.19;5036226;27;100884;-30
2022/11/22 06:21:15;;;;;;;2.85;0.28;;;;;;;4.98;94.80;99253.22;5055101;27;97805;-31
2022/11/22 06:23:41;;;;;;;0.95;0.50;;;;;;;4.95;95.37;99242.66;5036097;27;96730;-31
2022/11/22 06:26:09;;;;;;;1.25;0.47;;;;;;;4.96;94.81;99228.31;5054706;27;96749;-32
2022/11/22 06:28:37;;;;;;;0.20;0.20;;;;;;;4.95;94.72;99234.59;5035762;27;101014;-32
2022/11/22 06:31:06;;;;;;;0.73;0.40;;;;;;;4.94;94.48;99246.31;5036288;27;101136;-31
2022/11/22 06:33:32;;;;;;;0.65;0.60;;;;;;;4.93;94.57;99243.72;5036344;27;96580;-31
2022/11/22 06:36:10;;;;;;;0.63;0.63;;;;;;;4.94;94.58;99251.69;5036318;27;96848;-32
2022/11/22 06:38:37;;;;;;;1.10;0.77;;;;;;;4.95;94.98;99248.03;5054684;27;97419;-32
2022/11/22 06:41:08;;;;;;;0.98;0.75;;;;;;;4.94;94.56;99238.25;5035400;27;98799;-31
2022/11/22 06:43:34;;;;;;;1.50;0.70;;;;;;;4.96;94.54;99247.09;5035688;27;96646;-31
2022/11/22 06:46:01;;;;;;;1.67;0.77;;;;;;;4.97;94.52;99246.09;5036470;27;96777;-31
2022/11/22 06:48:31;;;;;;;1.95;0.82;;;;;;;4.97;94.80;99253.31;5035863;27;101178;-31
2022/11/22 06:51:01;;;;;;;5.80;1.00;;;;;;;4.96;94.65;99246.19;5035716;27;101130;-31
2022/11/22 06:53:31;;;;;;;1.00;0.68;;;;;;;4.96;94.50;99249.75;5053992;27;96661;-31
2022/11/22 06:56:04;;;;;;;1.90;0.57;;;;;;;4.97;94.53;99264.88;5052871;27;96892;-30
2022/11/22 06:58:30;;;;;;;1.67;0.22;;;;;;;4.97;94.19;99254.16;5035745;27;101121;-31
2022/11/22 07:01:03;;;;;;;1.38;0.63;;;;;;;4.98;94.91;99246.97;5054073;27;97778;-31
2022/11/22 07:03:29;;;;;;;0.43;0.43;;;;;;;4.97;94.61;99248.78;5035628;27;96497;-32
2022/11/22 07:05:55;;;;;;;1.45;0.68;;;;;;;4.98;94.51;99249.66;5035353;27;96816;-30
2022/11/22 07:08:21;;;;;;;0.20;0.20;;;;;;;5.00;94.10;99256.63;5035418;27;100683;-31
2022/11/22 07:10:46;;;;;;;1.25;0.80;;;;;;;4.98;93.97;99255.91;5053112;27;97899;-31
2022/11/22 07:13:12;;;;;;;2.72;0.90;;;;;;;5.01;94.49;99247.63;5054190;27;96439;-30
2022/11/22 07:15:37;;;;;;;0.45;0.45;;;;;;;4.99;94.55;99254.91;5053806;27;96612;-31
2022/11/22 07:18:02;;;;;;;2.40;1.35;;;;;;;4.98;94.15;99253.22;5053366;27;97858;-30
2022/11/22 07:20:28;;;;;;;2.83;0.73;;;;;;;5.01;94.02;99253.00;5053894;27;97399;-30
2022/11/22 07:22:53;;;;;;;0.35;0.35;;;;;;;5.01;94.00;99252.16;5053756;27;96369;-30
2022/11/22 07:25:18;;;;;;;1.15;0.73;;;;;;;5.05;94.11;99248.28;5053271;27;96801;-30
2022/11/22 07:27:44;;;;;;;1.08;0.80;;;;;;;5.03;93.64;99245.72;5053590;27;97820;-32
2022/11/22 07:30:10;;;;;;;1.95;0.57;;;;;;;5.04;93.75;99244.75;5053469;27;98164;-31
2022/11/22 07:32:35;;;;;;;0.20;0.20;;;;;;;5.03;93.80;99243.03;5053569;27;96464;-32
2022/11/22 07:35:00;;;;;;;0.32;0.32;;;;;;;5.03;93.73;99236.78;5053930;27;96710;-31
2022/11/22 07:37:25;;;;;;;2.17;0.95;;;;;;;5.03;93.17;99234.09;5053445;27;102541;-31
2022/11/22 07:39:51;;;;;;;1.27;0.45;;;;;;;5.08;93.24;99237.38;5053395;27;101493;-31
2022/11/22 07:42:16;;;;;;;5.82;0.57;;;;;;;5.07;93.11;99247.22;5052499;27;105931;-31
2022/11/22 07:44:41;;;;;;;0.85;0.40;;;;;;;5.06;92.90;99252.72;5053584;27;96811;-32
2022/11/22 07:47:07;;;;;;;0.65;0.57;;;;;;;5.08;93.46;99254.34;5052985;27;105511;-31
2022/11/22 07:49:32;;;;;;;5.30;1.17;;;;;;;5.11;93.75;99259.50;5053177;27;106985;-32
2022/11/22 07:51:58;;;;;;;1.10;0.45;;;;;;;5.15;93.13;99262.84;5053470;27;96850;-30
2022/11/22 07:54:24;;;;;;;0.43;0.40;;;;;;;5.15;93.21;99265.53;5053079;27;96688;-32
2022/11/22 07:56:49;;;;;;;1.00;0.65;;;;;;;5.14;93.10;99263.81;5051605;27;100997;-31
2022/11/22 07:59:14;;;;;;;5.15;0.63;;;;;;;5.15;92.85;99265.53;5053429;27;103213;-32
2022/11/22 08:01:40;;;;;;;0.82;0.60;;;;;;;5.15;93.21;99262.84;5053247;27;96595;-33
2022/11/22 08:04:05;;;;;;;0.68;0.57;;;;;;;5.20;93.44;99267.94;5039792;27;96781;-32
2022/11/22 08:06:30;;;;;;;0.32;0.32;;;;;;;5.23;93.39;99275.78;5031867;28;112852;-32
2022/11/22 08:08:56;;;;;;;1.63;0.73;;;;;;;5.25;93.33;99285.44;5014173;28;100635;-31
2022/11/22 08:11:21;;;;;;;1.35;1.00;;;;;;;5.24;93.44;99282.84;5032618;28;96615;-32
2022/11/22 08:13:46;;;;;;;1.15;0.82;;;;;;;5.24;92.63;99289.09;5032630;28;96832;-30
2022/11/22 08:16:14;;;;;;;0.73;0.70;;;;;;;5.23;93.17;99287.38;5032570;28;98438;-31
2022/11/22 08:18:44;;;;;;;0.75;0.60;;;;;;;5.27;93.07;99286.22;5014428;28;101264;-31
2022/11/22 08:21:11;;;;;;;0.75;0.43;;;;;;;5.27;93.06;99296.94;5014541;28;96518;-31
2022/11/22 08:23:38;;;;;;;0.80;0.53;;;;;;;5.32;93.17;99299.34;5014766;28;96884;-30
2022/11/22 08:26:05;;;;;;;4.72;1.60;;;;;;;5.28;92.88;99301.34;5013698;28;101099;-31
2022/11/22 08:28:30;;;;;;;0.22;0.20;;;;;;;5.28;92.59;99292.44;5014068;28;101076;-31
2022/11/22 08:31:04;;;;;;;0.40;0.20;;;;;;;5.31;92.84;99297.59;5032029;28;96590;-31
2022/11/22 08:33:29;;;;;;;0.57;0.57;;;;;;;5.33;92.99;99301.03;5014493;28;96674;-30
2022/11/22 08:35:54;;;;;;;4.63;0.50;;;;;;;5.29;92.83;99304.88;5032437;28;97385;-30
2022/11/22 08:38:20;;;;;;;1.02;0.80;;;;;;;5.29;92.63;99313.81;5031977;28;112281;-31
2022/11/22 08:40:45;;;;;;;1.02;0.82;;;;;;;5.27;92.84;99305.00;5032558;28;96570;-31
2022/11/22 08:43:10;;;;;;;0.52;0.22;;;;;;;5.29;92.91;99311.13;5032351;28;96774;-31
2022/11/22 08:45:36;;;;;;;0.90;0.77;;;;;;;5.32;92.76;99310.94;5032247;28;98722;-31
2022/11/22 08:48:01;;;;;;;1.67;0.57;;;;;;;5.29;92.81;99315.63;5032725;28;97233;-31
2022/11/22 08:50:26;;;;;;;0.43;0.32;;;;;;;5.28;92.81;99313.91;5031767;28;107731;-30
2022/11/22 08:52:53;;;;;;;1.13;0.50;;;;;;;5.30;93.24;99325.41;5032397;28;96728;-30
2022/11/22 08:55:19;;;;;;;7.32;1.02;;;;;;;5.30;92.91;99317.38;5031416;28;99299;-31
2022/11/22 08:57:44;;;;;;;2.50;0.65;;;;;;;5.34;93.46;99329.63;5031742;28;99129;-31
2022/11/22 09:00:10;;;;;;;0.52;0.40;;;;;;;5.31;93.00;99319.06;5032160;28;96442;-33
2022/11/22 09:02:35;;;;;;;2.25;1.30;;;;;;;5.35;93.35;99333.19;5032000;28;96776;-31
2022/11/22 09:05:01;;;;;;;0.50;0.43;;;;;;;5.36;93.18;99332.19;5032633;27;99130;-30
2022/11/22 09:07:27;;;;;;;1.67;0.93;;;;;;;5.34;93.57;99326.94;5035693;28;97902;-31
2022/11/22 09:09:53;;;;;;;0.75;0.47;;;;;;;5.33;93.21;99318.00;5017149;28;96582;-30
2022/11/22 09:12:19;;;;;;;1.55;0.82;;;;;;;5.39;93.07;99322.13;5017829;28;96823;-31
2022/11/22 09:14:46;;;;;;;1.48;0.75;;;;;;;5.39;93.15;99316.78;5035450;28;97925;-30
2022/11/22 09:17:11;;;;;;;1.90;1.13;;;;;;;5.43;93.11;99334.38;5035371;28;97947;-31
2022/11/22 09:19:36;;;;;;;0.60;0.50;;;;;;;5.46;93.26;99325.28;5035179;28;96574;-30
2022/11/22 09:22:04;;;;;;;0.95;0.70;;;;;;;5.48;93.42;99329.59;5035303;28;105430;-32
2022/11/22 09:24:30;;;;;;;2.53;1.05;;;;;;;5.49;93.09;99334.00;5034775;27;111322;-30
2022/11/22 09:26:55;;;;;;;0.77;0.55;;;;;;;5.45;92.94;99331.59;5035371;28;97312;-31
2022/11/22 09:29:20;;;;;;;2.08;0.90;;;;;;;5.49;92.79;99327.78;5035154;28;101041;-31
2022/11/22 09:31:46;;;;;;;7.13;1.20;;;;;;;5.48;92.82;99316.19;5035234;28;96807;-31
2022/11/22 09:34:11;;;;;;;3.95;1.02;;;;;;;5.53;92.92;99318.56;5035270;28;97942;-32
2022/11/22 09:36:36;;;;;;;0.63;0.50;;;;;;;5.54;93.01;99329.19;5035484;28;97387;-30
2022/11/22 09:39:02;;;;;;;0.47;0.47;;;;;;;5.56;92.91;99344.34;5017152;28;96479;-31
2022/11/22 09:41:45;;;;;;;0.35;0.25;;;;;;;5.58;92.65;99343.28;5034862;28;96727;-31
2022/11/22 09:44:39;;;;;;;2.95;0.77;;;;;;;5.62;92.75;99343.94;5016217;28;100548;-31
2022/11/22 09:47:26;;;;;;;3.70;0.90;;;;;;;5.62;92.72;99336.72;5035050;28;97260;-30
2022/11/22 09:50:01;;;;;;;2.88;1.13;;;;;;;5.64;92.69;99347.38;5016696;28;96885;-31
2022/11/22 09:52:40;;;;;;;0.85;0.60;;;;;;;5.63;92.48;99330.41;5035250;28;96613;-32
2022/11/22 09:55:17;;;;;;;1.65;0.88;;;;;;;5.70;92.49;99330.88;5035284;28;97334;-30
2022/11/22 09:58:00;;;;;;;1.45;1.20;;;;;;;5.70;92.21;99333.56;5016515;28;100831;-31
2022/11/22 10:00:28;;;;;;;0.82;0.50;;;;;;;5.72;91.85;99336.97;5016512;28;96588;-30
2022/11/22 10:03:07;;;;;;;2.45;1.40;;;;;;;5.72;91.36;99343.25;5017016;28;96792;-33
2022/11/22 10:05:50;;;;;;;1.83;0.80;;;;;;;5.75;92.07;99339.50;5034473;28;99305;-30
2022/11/22 10:08:49;;;;;;;0.98;0.88;;;;;;;5.82;91.95;99339.97;5016429;28;100844;-31
2022/11/22 10:11:27;;;;;;;0.75;0.47;;;;;;;5.80;90.93;99336.50;5034539;28;96546;-30
2022/11/22 10:14:00;;;;;;;1.55;0.80;;;;;;;5.83;91.59;99337.16;5034942;28;97193;-31
2022/11/22 10:16:34;;;;;;;1.63;0.93;;;;;;;5.85;91.45;99334.38;5015933;28;101209;-31
2022/11/22 10:19:09;;;;;;;1.27;0.77;;;;;;;5.86;91.21;99333.38;5034610;28;97923;-30
2022/11/22 10:21:34;;;;;;;1.38;0.32;;;;;;;5.87;90.94;99338.69;5016324;28;96662;-32
2022/11/22 10:24:00;;;;;;;2.42;1.10;;;;;;;5.89;90.97;99338.59;5015980;27;96859;-32
2022/11/22 10:26:33;;;;;;;1.73;0.57;;;;;;;5.90;91.26;99333.09;5034527;28;98069;-31
2022/11/22 10:29:23;;;;;;;1.70;0.95;;;;;;;5.92;91.64;99325.78;5016324;28;100934;-31
2022/11/22 10:31:58;;;;;;;0.80;0.47;;;;;;;5.93;91.08;99332.03;5016261;28;96569;-31
2022/11/22 10:34:56;;;;;;;2.50;0.90;;;;;;;5.93;91.50;99326.66;5016158;28;96697;-31
2022/11/22 10:37:35;;;;;;;1.83;0.75;;;;;;;5.96;91.33;99331.88;5015589;28;101115;-31
2022/11/22 10:40:19;;;;;;;0.80;0.57;;;;;;;5.94;91.28;99329.28;5015663;28;100945;-30
2022/11/22 10:42:56;;;;;;;2.28;1.15;;;;;;;5.95;91.25;99341.72;5016124;28;96737;-32
2022/11/22 10:45:34;;;;;;;3.63;1.02;;;;;;;5.99;91.49;99334.34;5034155;28;97300;-30
2022/11/22 10:47:59;;;;;;;0.65;0.43;;;;;;;5.99;91.14;99328.97;5033993;28;98159;-31
2022/11/22 10:50:35;;;;;;;1.58;0.77;;;;;;;5.99;90.98;99330.81;5033941;28;97473;-31
2022/11/22 10:53:36;;;;;;;2.67;0.80;;;;;;;6.02;90.64;99325.22;5016021;28;96680;-31
2022/11/22 10:56:53;;;;;;;0.98;0.70;;;;;;;6.03;90.89;99327.81;5016148;28;98104;-30
2022/11/22 10:59:24;;;;;;;0.77;0.77;;;;;;;6.04;90.78;99328.66;5030227;28;99216;-31
2022/11/22 11:02:23;;;;;;;3.65;1.70;;;;;;;6.06;90.96;99321.34;5033614;28;99265;-30
2022/11/22 11:04:51;;;;;;;0.88;0.47;;;;;;;6.04;90.78;99312.53;5032910;28;96618;-31
2022/11/22 11:07:20;;;;;;;0.50;0.47;;;;;;;6.04;91.05;99302.63;5015707;28;96984;-31
2022/11/22 11:09:49;;;;;;;1.02;0.40;;;;;;;6.12;91.08;99299.41;5015023;28;101556;-31
2022/11/22 11:12:18;;;;;;;0.47;0.40;;;;;;;6.11;91.02;99305.78;5015314;28;102206;-30
2022/11/22 11:14:48;;;;;;;1.55;0.85;;;;;;;6.11;91.12;99303.09;5033509;28;96576;-30
2022/11/22 11:17:17;;;;;;;2.15;0.55;;;;;;;6.09;91.16;99305.88;5015117;28;96779;-30
2022/11/22 11:19:45;;;;;;;1.95;0.40;;;;;;;6.09;91.06;99311.25;5015224;28;101310;-31
2022/11/22 11:22:22;;;;;;;1.15;0.88;;;;;;;6.09;91.20;99311.25;5015641;28;101142;-30
2022/11/22 11:24:47;;;;;;;0.90;0.63;;;;;;;6.12;91.34;99310.16;5018720;28;97860;-30
2022/11/22 11:27:16;;;;;;;2.45;1.20;;;;;;;6.13;91.34;99306.53;5033320;27;96743;-30
2022/11/22 11:29:43;;;;;;;1.10;0.60;;;;;;;6.14;91.52;99308.25;5030527;28;100838;-30
2022/11/22 11:32:10;;;;;;;1.38;0.88;;;;;;;6.16;91.31;99309.84;5031663;28;101846;-31
2022/11/22 11:34:38;;;;;;;1.73;0.68;;;;;;;6.21;91.57;99306.00;5033364;27;96462;-31
2022/11/22 11:37:05;;;;;;;2.53;1.63;;;;;;;6.24;91.29;99300.41;5031016;28;97057;-31
2022/11/22 11:39:34;;;;;;;1.20;0.85;;;;;;;6.28;91.24;99293.88;5031769;28;98815;-31
2022/11/22 11:42:18;;;;;;;1.75;0.73;;;;;;;6.37;91.56;99304.84;5031602;28;100232;-31
2022/11/22 11:44:45;;;;;;;0.47;0.40;;;;;;;6.38;91.02;99306.56;5033150;27;98319;-30
2022/11/22 11:47:19;;;;;;;1.65;0.40;;;;;;;6.42;90.55;99300.97;5033629;27;96699;-30
2022/11/22 11:49:51;;;;;;;0.90;0.63;;;;;;;6.49;90.88;99302.28;5031526;28;100878;-31
2022/11/22 11:52:22;;;;;;;0.45;0.40;;;;;;;6.50;90.89;99303.97;5033080;28;97269;-30
2022/11/22 11:54:51;;;;;;;0.90;0.47;;;;;;;6.50;91.33;99302.16;5032637;27;96411;-30
2022/11/22 11:57:34;;;;;;;2.40;1.10;;;;;;;6.46;91.37;99299.78;5031613;28;96848;-31